Time;durP1;ratioP1;P1;durP2;ratioP2;P2;SDS_P1;SDS_P2;PMS_P1;PMS_P2;Temp;Humidity;BMP_temperature;BMP_pressure;BME280_temperature;BME280_humidity;BME280_pressure;Samples;Min_cycle;Max_cycle;Signal;HPM_P1;HPM_P2
2023/05/27 00:00:14;;;;;;;3.37;2.80;;;20.30;52.90;19.50;97128.00;;;;6048655;23;20192;-79
2023/05/27 00:02:41;;;;;;;3.00;2.80;;;20.20;52.90;19.50;97129.00;;;;6074133;23;20210;-80
2023/05/27 00:05:09;;;;;;;3.30;3.00;;;20.20;52.90;19.40;97127.00;;;;6072579;23;20235;-80
2023/05/27 00:07:37;;;;;;;4.23;2.67;;;20.20;53.10;19.40;97127.00;;;;6048812;23;20227;-80
2023/05/27 00:10:06;;;;;;;4.03;2.70;;;20.10;53.00;19.40;97122.00;;;;6052975;23;20196;-79
2023/05/27 00:12:33;;;;;;;3.43;2.50;;;20.10;53.10;19.30;97116.00;;;;6052125;23;20186;-79
2023/05/27 00:15:00;;;;;;;3.03;2.73;;;20.10;53.00;19.30;97123.00;;;;6076531;23;20590;-79
2023/05/27 00:17:29;;;;;;;3.57;3.27;;;20.10;53.00;19.30;97124.00;;;;6075128;23;20207;-78
2023/05/27 00:19:56;;;;;;;3.07;2.73;;;20.00;53.00;19.20;97117.00;;;;6050472;23;20231;-78
2023/05/27 00:22:24;;;;;;;4.53;3.50;;;20.00;53.20;19.20;97117.00;;;;6049821;23;20212;-79
2023/05/27 00:24:51;;;;;;;3.00;2.53;;;20.00;53.30;19.20;97111.00;;;;6069535;23;20204;-78
2023/05/27 00:27:18;;;;;;;4.57;2.73;;;20.00;53.30;19.10;97111.00;;;;6039357;23;20882;-80
2023/05/27 00:29:46;;;;;;;6.43;2.90;;;19.90;53.20;19.10;97112.00;;;;6040050;23;20182;-80
2023/05/27 00:32:13;;;;;;;4.57;2.83;;;19.90;53.30;19.10;97113.00;;;;6042703;23;20183;-80
2023/05/27 00:34:41;;;;;;;3.80;2.87;;;19.90;53.50;19.10;97115.00;;;;6067643;23;20569;-80
2023/05/27 00:37:09;;;;;;;3.03;2.70;;;19.80;53.40;19.00;97113.00;;;;6067609;23;20223;-80
2023/05/27 00:39:36;;;;;;;3.10;2.80;;;19.80;53.40;19.00;97112.00;;;;6067518;23;20183;-79
2023/05/27 00:42:05;;;;;;;2.93;2.63;;;19.80;53.50;19.00;97110.00;;;;6049638;23;20689;-80
2023/05/27 00:44:33;;;;;;;5.37;3.00;;;19.80;53.70;19.00;97108.00;;;;6073909;23;20192;-79
2023/05/27 00:47:00;;;;;;;3.97;2.43;;;19.70;53.80;19.00;97117.00;;;;6042247;23;20274;-80
2023/05/27 00:49:28;;;;;;;4.90;3.07;;;19.70;53.90;19.00;97110.00;;;;6042222;23;20180;-79
2023/05/27 00:51:57;;;;;;;2.90;2.70;;;19.70;54.60;18.90;97111.00;;;;6069229;23;20259;-80
2023/05/27 00:54:25;;;;;;;3.20;2.90;;;19.70;54.00;18.90;97108.00;;;;6043740;23;20207;-78
2023/05/27 00:56:53;;;;;;;3.40;2.67;;;19.70;54.10;18.90;97108.00;;;;6069378;23;20172;-79
2023/05/27 00:59:20;;;;;;;3.00;2.53;;;19.70;54.20;18.90;97109.00;;;;6070060;23;20206;-80
2023/05/27 01:01:49;;;;;;;3.00;2.60;;;19.70;54.20;18.90;97110.00;;;;6020841;23;20184;-80
2023/05/27 01:04:17;;;;;;;4.23;2.83;;;19.70;54.00;18.90;97100.00;;;;6020035;23;20207;-79
2023/05/27 01:06:57;;;;;;;2.70;2.47;;;19.70;54.10;18.90;97099.00;;;;6067520;23;20196;-80
2023/05/27 01:09:37;;;;;;;3.53;2.90;;;19.70;54.20;18.90;97101.00;;;;6042534;23;20180;-80
2023/05/27 01:12:13;;;;;;;4.93;2.83;;;19.70;54.10;18.90;97104.00;;;;6066887;23;20238;-79
2023/05/27 01:14:44;;;;;;;3.53;3.23;;;19.70;54.30;18.90;97109.00;;;;6042367;23;20867;-80
2023/05/27 01:17:15;;;;;;;3.73;3.10;;;19.70;54.30;18.90;97110.00;;;;6041220;23;20685;-79
2023/05/27 01:19:46;;;;;;;4.13;2.90;;;19.60;54.20;18.90;97101.00;;;;6068474;23;20192;-80
2023/05/27 01:22:15;;;;;;;3.47;3.17;;;19.60;54.30;18.80;97099.00;;;;6069608;23;20617;-80
2023/05/27 01:24:44;;;;;;;4.20;3.00;;;19.60;54.30;18.80;97097.00;;;;6069398;23;20279;-80
2023/05/27 01:27:12;;;;;;;3.90;2.73;;;19.60;54.40;18.80;97102.00;;;;6069475;23;20258;-80
2023/05/27 01:29:42;;;;;;;3.77;2.83;;;19.60;54.40;18.70;97099.00;;;;6044916;23;20509;-79
2023/05/27 01:32:18;;;;;;;3.53;3.20;;;19.50;54.30;18.70;97093.00;;;;6071999;23;20212;-80
2023/05/27 01:34:58;;;;;;;5.47;2.60;;;19.50;54.40;18.60;97088.00;;;;6071187;23;20275;-80
2023/05/27 01:37:33;;;;;;;4.03;2.87;;;19.50;54.50;18.60;97094.00;;;;6072490;23;20255;-79
2023/05/27 01:40:05;;;;;;;3.83;3.03;;;19.40;54.40;18.60;97090.00;;;;6072637;23;20202;-80
2023/05/27 01:42:35;;;;;;;3.03;2.73;;;19.40;54.60;18.50;97091.00;;;;6047216;23;20224;-80
2023/05/27 01:45:05;;;;;;;2.87;2.60;;;19.40;54.70;18.50;97088.00;;;;6073130;23;20203;-80
2023/05/27 01:47:34;;;;;;;5.03;3.00;;;19.40;54.70;18.50;97085.00;;;;6073505;23;20184;-80
2023/05/27 01:50:02;;;;;;;4.20;2.77;;;19.30;54.50;18.40;97089.00;;;;6023702;23;20498;-79
2023/05/27 01:52:30;;;;;;;3.10;2.77;;;19.30;54.50;18.40;97085.00;;;;6072820;23;20239;-79
2023/05/27 01:54:57;;;;;;;4.37;3.00;;;19.20;54.50;18.30;97082.00;;;;6073164;23;20199;-78
2023/05/27 01:57:26;;;;;;;4.90;3.10;;;19.20;54.60;18.30;97084.00;;;;6074210;23;20196;-79
2023/05/27 01:59:53;;;;;;;5.30;3.20;;;19.20;54.60;18.20;97088.00;;;;6047766;23;20176;-79
2023/05/27 02:02:21;;;;;;;4.83;3.00;;;19.10;54.60;18.20;97081.00;;;;6072445;23;20646;-79
2023/05/27 02:04:48;;;;;;;4.40;3.00;;;19.10;54.80;18.20;97086.00;;;;6047753;23;20228;-80
2023/05/27 02:07:16;;;;;;;4.17;3.00;;;19.00;54.80;18.10;97087.00;;;;6072070;23;20251;-79
2023/05/27 02:09:44;;;;;;;3.87;2.90;;;19.00;54.80;18.10;97086.00;;;;6046039;23;20183;-80
2023/05/27 02:12:12;;;;;;;3.40;2.80;;;18.90;54.90;18.00;97093.00;;;;6070617;23;20236;-80
2023/05/27 02:14:40;;;;;;;5.20;2.57;;;18.90;55.00;18.00;97089.00;;;;6041718;23;20689;-79
2023/05/27 02:17:08;;;;;;;5.50;2.90;;;18.90;55.20;17.90;97078.00;;;;6018255;23;20227;-80
2023/05/27 02:19:35;;;;;;;3.67;3.00;;;18.80;55.10;17.90;97083.00;;;;6067436;23;20200;-79
2023/05/27 02:22:03;;;;;;;3.80;3.37;;;18.80;55.30;17.90;97075.00;;;;6043484;23;20168;-80
2023/05/27 02:24:30;;;;;;;4.23;3.00;;;18.80;55.50;17.80;97080.00;;;;6050042;23;20746;-80
2023/05/27 02:26:57;;;;;;;3.57;2.93;;;18.70;55.40;17.80;97086.00;;;;6067647;23;20547;-79
2023/05/27 02:29:25;;;;;;;3.47;2.80;;;18.70;55.30;17.80;97083.00;;;;6067018;23;20320;-79
2023/05/27 02:31:53;;;;;;;2.73;2.50;;;18.70;55.40;17.70;97080.00;;;;6069740;23;20218;-80
2023/05/27 02:34:21;;;;;;;3.60;3.20;;;18.60;55.60;17.70;97080.00;;;;6067357;23;20228;-79
2023/05/27 02:36:48;;;;;;;4.00;2.83;;;18.60;55.70;17.70;97071.00;;;;6070216;23;20251;-79
2023/05/27 02:39:16;;;;;;;4.63;2.87;;;18.50;56.30;17.70;97075.00;;;;6068559;23;20196;-79
2023/05/27 02:41:44;;;;;;;3.70;2.80;;;18.50;55.80;17.60;97069.00;;;;6068533;23;20705;-80
2023/05/27 02:44:12;;;;;;;4.87;2.70;;;18.50;55.90;17.60;97073.00;;;;6068615;23;20196;-80
2023/05/27 02:46:40;;;;;;;2.77;2.53;;;18.50;56.00;17.60;97069.00;;;;6068706;23;20172;-79
2023/05/27 02:49:09;;;;;;;3.23;2.60;;;18.50;56.00;17.50;97069.00;;;;6069368;23;20204;-79
2023/05/27 02:51:38;;;;;;;3.43;3.00;;;18.50;56.00;17.50;97070.00;;;;6067623;23;20554;-80
2023/05/27 02:54:06;;;;;;;4.00;2.83;;;18.40;56.00;17.50;97068.00;;;;6069117;23;20227;-79
2023/05/27 02:56:33;;;;;;;3.47;2.80;;;18.40;56.00;17.40;97073.00;;;;6067371;23;20180;-80
2023/05/27 02:59:01;;;;;;;3.10;2.77;;;18.30;56.00;17.40;97060.00;;;;6067491;23;20230;-80
2023/05/27 03:01:28;;;;;;;5.50;3.10;;;18.30;56.10;17.30;97063.00;;;;6069456;23;20203;-79
2023/05/27 03:03:55;;;;;;;3.37;3.07;;;18.30;56.10;17.30;97062.00;;;;6041928;23;20203;-79
2023/05/27 03:06:24;;;;;;;4.70;2.63;;;18.20;56.30;17.20;97064.00;;;;6064710;23;20192;-79
2023/05/27 03:08:51;;;;;;;6.07;3.10;;;18.20;56.40;17.20;97070.00;;;;6063419;23;20634;-79
2023/05/27 03:11:19;;;;;;;4.53;2.80;;;18.10;56.30;17.10;97066.00;;;;6064526;23;20179;-79
2023/05/27 03:13:46;;;;;;;3.27;2.57;;;18.10;56.40;17.10;97060.00;;;;6063501;23;20682;-79
2023/05/27 03:16:13;;;;;;;4.93;3.20;;;18.10;56.50;17.00;97058.00;;;;6067303;23;20178;-79
2023/05/27 03:18:41;;;;;;;3.83;3.17;;;18.00;56.50;17.00;97059.00;;;;6068152;23;20200;-80
2023/05/27 03:21:08;;;;;;;3.30;3.00;;;18.00;56.70;16.90;97061.00;;;;6069237;23;20194;-80
2023/05/27 03:23:37;;;;;;;6.10;3.30;;;17.90;56.60;16.90;97055.00;;;;6067951;23;20273;-79
2023/05/27 03:26:04;;;;;;;4.47;2.90;;;17.90;56.70;16.80;97053.00;;;;6069024;23;20243;-79
2023/05/27 03:28:32;;;;;;;3.70;2.80;;;17.80;56.70;16.80;97042.00;;;;6070003;23;20180;-79
2023/05/27 03:30:59;;;;;;;2.80;2.47;;;17.70;57.30;16.80;97054.00;;;;6069342;23;20258;-79
2023/05/27 03:33:26;;;;;;;6.37;3.20;;;17.80;56.90;16.70;97057.00;;;;6044618;23;20693;-79
2023/05/27 03:35:55;;;;;;;3.87;2.80;;;17.70;57.60;16.70;97056.00;;;;6044844;23;20178;-80
2023/05/27 03:38:23;;;;;;;4.17;2.77;;;17.60;57.10;16.70;97057.00;;;;6069261;23;20684;-79
2023/05/27 03:40:51;;;;;;;7.00;2.93;;;17.60;57.10;16.60;97051.00;;;;6044167;23;20182;-80
2023/05/27 03:43:19;;;;;;;3.50;2.60;;;17.60;57.20;16.60;97059.00;;;;6070207;23;20582;-79
2023/05/27 03:45:46;;;;;;;5.50;2.90;;;17.60;57.30;16.50;97056.00;;;;6069205;23;20257;-79
2023/05/27 03:48:13;;;;;;;3.53;2.80;;;17.50;57.30;16.50;97053.00;;;;6069987;23;20203;-79
2023/05/27 03:50:41;;;;;;;5.43;3.30;;;17.50;57.40;16.50;97061.00;;;;6069143;23;20259;-79
2023/05/27 03:53:08;;;;;;;2.73;2.27;;;17.40;57.40;16.40;97059.00;;;;6044455;23;20271;-79
2023/05/27 03:55:35;;;;;;;3.20;2.77;;;17.40;57.60;16.40;97061.00;;;;6070755;23;20212;-79
2023/05/27 03:58:04;;;;;;;3.13;2.70;;;17.40;57.70;16.40;97061.00;;;;6069726;23;20291;-78
2023/05/27 04:00:31;;;;;;;2.87;2.67;;;17.30;57.70;16.30;97061.00;;;;6067367;23;20172;-78
2023/05/27 04:02:59;;;;;;;3.60;2.60;;;17.30;57.80;16.30;97070.00;;;;6067280;23;20762;-80
2023/05/27 04:05:26;;;;;;;3.93;2.90;;;17.30;57.90;16.30;97066.00;;;;6068197;23;20183;-79
2023/05/27 04:07:54;;;;;;;3.77;2.67;;;17.30;58.00;16.30;97067.00;;;;6043004;23;20207;-80
2023/05/27 04:10:21;;;;;;;2.67;2.47;;;17.30;58.20;16.30;97061.00;;;;6068230;23;20255;-80
2023/05/27 04:12:48;;;;;;;4.50;2.87;;;17.20;58.20;16.30;97059.00;;;;6067206;23;20192;-79
2023/05/27 04:15:17;;;;;;;3.60;2.80;;;17.20;58.20;16.20;97063.00;;;;6069955;23;20207;-80
2023/05/27 04:17:45;;;;;;;4.53;2.80;;;17.20;58.30;16.20;97059.00;;;;6070594;23;20204;-79
2023/05/27 04:20:14;;;;;;;4.83;2.87;;;17.20;58.40;16.20;97060.00;;;;6071062;23;20235;-79
2023/05/27 04:22:42;;;;;;;3.63;2.80;;;17.20;58.50;16.20;97061.00;;;;6070693;23;20686;-79
2023/05/27 04:25:10;;;;;;;3.20;2.90;;;17.20;58.50;16.20;97056.00;;;;6058852;23;20235;-80
2023/05/27 04:27:37;;;;;;;3.33;2.90;;;17.20;58.40;16.20;97059.00;;;;6044936;23;20176;-79
2023/05/27 04:30:06;;;;;;;3.17;2.50;;;17.10;58.30;16.20;97066.00;;;;6070351;23;20658;-80
2023/05/27 04:32:37;;;;;;;2.87;2.57;;;17.10;58.30;16.20;97064.00;;;;6068037;23;20705;-79
2023/05/27 04:35:07;;;;;;;4.27;2.90;;;17.10;58.50;16.20;97063.00;;;;6067850;23;20188;-79
2023/05/27 04:37:36;;;;;;;2.87;2.63;;;17.20;58.60;16.30;97061.00;;;;6070913;23;20231;-79
2023/05/27 04:40:05;;;;;;;2.83;2.53;;;17.20;58.60;16.30;97073.00;;;;6070244;23;20196;-79
2023/05/27 04:42:36;;;;;;;3.60;3.17;;;17.20;58.50;16.30;97068.00;;;;6068103;23;20182;-80
2023/05/27 04:45:05;;;;;;;5.07;3.03;;;17.20;58.60;16.30;97061.00;;;;6068468;23;20629;-79
2023/05/27 04:47:32;;;;;;;5.20;2.63;;;17.20;58.70;16.30;97063.00;;;;6045565;23;20255;-79
2023/05/27 04:50:02;;;;;;;4.50;2.80;;;17.20;58.80;16.30;97061.00;;;;6069458;23;20710;-78
2023/05/27 04:52:36;;;;;;;5.47;2.80;;;17.20;58.90;16.40;97061.00;;;;6044192;23;20176;-79
2023/05/27 04:55:04;;;;;;;5.10;2.77;;;17.20;58.80;16.40;97057.00;;;;6066990;23;20523;-79
2023/05/27 04:57:32;;;;;;;4.03;2.97;;;17.30;58.90;16.40;97053.00;;;;6067188;23;20195;-79
2023/05/27 05:00:18;;;;;;;5.20;2.73;;;17.30;58.90;16.50;97052.00;;;;6069745;23;20235;-78
2023/05/27 05:02:47;;;;;;;5.63;2.87;;;17.30;58.90;16.50;97055.00;;;;6070775;23;20662;-79
2023/05/27 05:05:17;;;;;;;4.40;2.90;;;17.30;58.60;16.50;97056.00;;;;6070989;23;20251;-79
2023/05/27 05:07:48;;;;;;;6.20;2.93;;;17.40;58.70;16.60;97064.00;;;;6069525;23;20176;-79
2023/05/27 05:10:16;;;;;;;3.13;2.37;;;17.40;58.80;16.60;97063.00;;;;6070349;23;20547;-78
2023/05/27 05:12:43;;;;;;;4.37;3.00;;;17.40;58.90;16.60;97059.00;;;;6071471;23;20630;-79
2023/05/27 05:15:10;;;;;;;3.87;2.60;;;17.40;58.80;16.70;97058.00;;;;6070877;23;20242;-79
2023/05/27 05:17:38;;;;;;;4.53;2.80;;;17.50;58.80;16.70;97065.00;;;;6070970;23;20247;-78
2023/05/27 05:20:08;;;;;;;3.03;2.53;;;17.50;58.80;16.70;97060.00;;;;6069260;23;20279;-80
2023/05/27 05:22:38;;;;;;;3.73;2.60;;;17.50;58.90;16.80;97066.00;;;;6071715;23;20182;-80
2023/05/27 05:25:06;;;;;;;3.77;2.40;;;17.60;59.10;16.80;97062.00;;;;6070262;23;20227;-80
2023/05/27 05:27:36;;;;;;;2.90;2.70;;;17.60;59.00;16.80;97065.00;;;;6044929;23;20263;-79
2023/05/27 05:30:05;;;;;;;3.97;2.70;;;17.60;58.80;16.90;97072.00;;;;6071104;23;20176;-79
2023/05/27 05:32:32;;;;;;;5.03;2.23;;;17.70;58.90;16.90;97073.00;;;;6043498;23;20204;-80
2023/05/27 05:34:59;;;;;;;5.20;2.83;;;17.70;58.80;16.90;97070.00;;;;6070675;23;20196;-80
2023/05/27 05:37:27;;;;;;;3.67;2.53;;;17.70;58.80;17.00;97071.00;;;;6023559;23;20231;-79
2023/05/27 05:39:57;;;;;;;4.23;2.50;;;17.80;58.70;17.00;97073.00;;;;6072743;23;20299;-80
2023/05/27 05:42:25;;;;;;;4.37;2.73;;;17.80;58.80;17.00;97080.00;;;;6073826;23;20662;-79
2023/05/27 05:44:56;;;;;;;2.70;2.10;;;17.80;58.60;17.10;97080.00;;;;6074291;23;20199;-80
2023/05/27 05:47:23;;;;;;;5.30;2.67;;;17.90;58.70;17.10;97083.00;;;;6073710;23;20184;-80
2023/05/27 05:49:50;;;;;;;6.97;3.37;;;17.90;58.60;17.20;97079.00;;;;6046493;23;20640;-80
2023/05/27 05:52:17;;;;;;;6.60;2.80;;;17.90;58.50;17.20;97078.00;;;;6071405;23;20581;-81
2023/05/27 05:54:45;;;;;;;5.47;2.37;;;17.90;58.40;17.20;97082.00;;;;6072492;23;20729;-80
2023/05/27 05:57:13;;;;;;;4.13;2.50;;;18.00;58.50;17.30;97083.00;;;;6072367;23;20200;-81
2023/05/27 05:59:41;;;;;;;5.23;3.03;;;18.10;58.50;17.40;97080.00;;;;6072825;23;20236;-80
2023/05/27 06:02:09;;;;;;;3.10;2.60;;;18.10;58.40;17.40;97086.00;;;;6046258;23;20230;-81
2023/05/27 06:04:37;;;;;;;3.30;2.50;;;18.10;58.30;17.50;97087.00;;;;6071664;23;20247;-82
2023/05/27 06:07:04;;;;;;;4.67;2.77;;;18.20;58.30;17.50;97094.00;;;;6069751;23;20243;-82
2023/05/27 06:09:32;;;;;;;4.80;2.60;;;18.30;58.10;17.60;97086.00;;;;6074565;23;20184;-81
2023/05/27 06:12:00;;;;;;;4.23;2.40;;;18.30;58.20;17.60;97085.00;;;;6075641;23;20187;-81
2023/05/27 06:14:28;;;;;;;2.67;2.37;;;18.30;58.10;17.70;97089.00;;;;6073541;23;20228;-81
2023/05/27 06:16:56;;;;;;;2.83;2.47;;;18.40;58.30;17.80;97095.00;;;;6072484;23;20266;-81
2023/05/27 06:19:23;;;;;;;3.90;2.90;;;18.50;58.20;17.80;97092.00;;;;6071882;23;20283;-81
2023/05/27 06:21:51;;;;;;;3.00;2.07;;;18.50;57.70;17.90;97093.00;;;;6070597;23;20233;-82
2023/05/27 06:24:19;;;;;;;4.50;2.77;;;18.60;57.60;18.00;97086.00;;;;6072388;23;20681;-82
2023/05/27 06:26:46;;;;;;;3.33;2.27;;;18.60;57.50;18.00;97091.00;;;;6074864;23;20642;-81
2023/05/27 06:29:13;;;;;;;4.47;2.87;;;18.70;57.30;18.10;97085.00;;;;6048468;23;20650;-80
2023/05/27 06:31:43;;;;;;;3.37;2.43;;;18.80;57.70;18.20;97085.00;;;;6073439;23;20192;-81
2023/05/27 06:34:10;;;;;;;2.80;1.87;;;18.90;57.50;18.20;97085.00;;;;6074010;23;20246;-81
2023/05/27 06:36:38;;;;;;;6.17;2.70;;;18.90;57.30;18.30;97095.00;;;;6073261;23;20180;-81
2023/05/27 06:39:06;;;;;;;2.93;2.37;;;19.00;57.20;18.40;97097.00;;;;6072557;23;20239;-81
2023/05/27 06:41:34;;;;;;;4.77;2.50;;;19.00;57.10;18.40;97095.00;;;;6046791;23;20173;-81
2023/05/27 06:44:01;;;;;;;5.20;2.70;;;19.10;57.10;18.50;97087.00;;;;6044823;23;20674;-80
2023/05/27 06:46:28;;;;;;;3.63;2.00;;;19.20;57.10;18.60;97097.00;;;;6043442;23;20229;-81
2023/05/27 06:48:58;;;;;;;6.37;2.50;;;19.20;56.80;18.70;97089.00;;;;6066314;23;20686;-82
2023/05/27 06:51:28;;;;;;;3.93;2.33;;;19.30;56.70;18.70;97085.00;;;;6066464;23;20168;-81
2023/05/27 06:53:55;;;;;;;2.73;1.70;;;19.40;56.80;18.80;97090.00;;;;6064002;23;20192;-83
2023/05/27 06:56:22;;;;;;;3.50;2.03;;;19.40;56.70;18.90;97084.00;;;;6066470;23;20259;-81
2023/05/27 06:58:50;;;;;;;7.07;2.43;;;19.50;56.30;19.00;97088.00;;;;6066918;23;20251;-82
2023/05/27 07:01:17;;;;;;;4.03;2.07;;;19.60;56.40;19.10;97082.00;;;;6042810;23;20228;-81
2023/05/27 07:03:44;;;;;;;6.03;2.53;;;19.70;56.30;19.20;97085.00;;;;6067504;23;20207;-82
2023/05/27 07:06:13;;;;;;;4.80;2.43;;;19.80;56.20;19.40;97081.00;;;;6068352;23;20255;-82
2023/05/27 07:08:41;;;;;;;4.53;2.13;;;19.90;56.10;19.50;97084.00;;;;6069149;23;20172;-83
2023/05/27 07:11:08;;;;;;;3.67;2.20;;;20.00;56.30;19.60;97092.00;;;;6068747;23;20263;-82
2023/05/27 07:13:35;;;;;;;3.17;1.80;;;20.10;56.20;19.80;97084.00;;;;6042073;23;20271;-82
2023/05/27 07:16:03;;;;;;;6.30;3.23;;;20.30;56.30;19.90;97091.00;;;;6068193;23;20644;-83
2023/05/27 07:18:30;;;;;;;4.47;2.30;;;20.40;56.00;20.10;97096.00;;;;6043549;23;20544;-83
2023/05/27 07:20:57;;;;;;;4.93;2.20;;;20.50;55.80;20.20;97095.00;;;;6042557;23;20700;-83
2023/05/27 07:23:27;;;;;;;4.97;2.00;;;20.70;55.80;20.30;97091.00;;;;6067462;23;20239;-83
2023/05/27 07:25:54;;;;;;;4.40;2.40;;;20.80;55.30;20.50;97089.00;;;;6067996;23;20182;-83
2023/05/27 07:28:21;;;;;;;4.10;2.27;;;21.00;55.20;20.70;97094.00;;;;6067201;23;20263;-82
2023/05/27 07:30:49;;;;;;;2.77;1.70;;;21.10;55.20;20.80;97096.00;;;;6043246;23;20175;-82
2023/05/27 07:33:16;;;;;;;5.17;2.20;;;21.20;54.90;20.90;97094.00;;;;6043268;23;20586;-82
2023/05/27 07:35:43;;;;;;;3.27;2.50;;;21.40;54.90;21.10;97095.00;;;;6042944;23;20176;-82
2023/05/27 07:38:11;;;;;;;3.87;2.00;;;21.50;54.80;21.20;97093.00;;;;6042299;23;20687;-83
2023/05/27 07:40:40;;;;;;;4.30;1.87;;;21.70;54.60;21.40;97091.00;;;;6068065;23;20283;-81
2023/05/27 07:43:07;;;;;;;5.03;2.00;;;21.80;54.30;21.50;97101.00;;;;6042340;23;20204;-81
2023/05/27 07:45:34;;;;;;;4.57;2.20;;;21.90;54.20;21.60;97100.00;;;;6041829;23;20883;-83
2023/05/27 07:48:02;;;;;;;3.60;2.20;;;22.10;54.10;21.80;97088.00;;;;6018056;23;20172;-82
2023/05/27 07:50:29;;;;;;;5.77;2.83;;;22.20;53.70;21.90;97090.00;;;;6018604;23;20183;-84
2023/05/27 07:52:56;;;;;;;5.70;2.40;;;22.30;53.60;22.10;97091.00;;;;6042363;23;20176;-82
2023/05/27 07:55:24;;;;;;;4.00;2.40;;;22.50;53.00;22.20;97093.00;;;;6067828;23;20251;-83
2023/05/27 07:57:54;;;;;;;3.23;2.20;;;22.60;52.90;22.30;97087.00;;;;6020176;23;20697;-82
2023/05/27 08:00:22;;;;;;;4.30;2.10;;;22.70;52.70;22.50;97090.00;;;;6068337;23;20279;-81
2023/05/27 08:02:49;;;;;;;3.57;1.93;;;22.90;52.60;22.60;97100.00;;;;6068674;23;20709;-83
2023/05/27 08:05:17;;;;;;;3.93;1.83;;;23.00;52.40;22.70;97095.00;;;;6068571;23;20555;-83
2023/05/27 08:07:45;;;;;;;2.30;1.80;;;23.10;52.10;22.80;97091.00;;;;6043062;23;20509;-83
2023/05/27 08:10:12;;;;;;;3.63;2.00;;;23.30;52.10;23.00;97089.00;;;;6043967;23;20195;-82
2023/05/27 08:12:40;;;;;;;6.03;2.17;;;23.40;51.80;23.10;97099.00;;;;6043069;23;20179;-82
2023/05/27 08:15:10;;;;;;;3.73;2.47;;;23.50;51.90;23.20;97091.00;;;;6067874;23;20229;-84
2023/05/27 08:17:38;;;;;;;4.83;2.43;;;23.60;51.70;23.30;97104.00;;;;6068362;23;20206;-83
2023/05/27 08:20:08;;;;;;;3.50;2.20;;;23.70;51.60;23.50;97089.00;;;;6043633;23;20258;-83
2023/05/27 08:22:35;;;;;;;2.70;1.70;;;23.80;51.00;23.60;97087.00;;;;6068625;23;20174;-83
2023/05/27 08:25:02;;;;;;;6.13;2.33;;;24.00;51.00;23.70;97088.00;;;;6067897;23;20235;-83
2023/05/27 08:27:51;;;;;;;3.13;1.93;;;24.10;50.50;23.80;97098.00;;;;6068695;23;20172;-83
2023/05/27 08:30:21;;;;;;;4.93;2.20;;;24.30;50.20;24.00;97087.00;;;;6068693;23;20189;-84
2023/05/27 08:32:48;;;;;;;4.27;2.03;;;24.40;50.30;24.10;97082.00;;;;6067918;23;20179;-82
2023/05/27 08:35:16;;;;;;;4.83;2.37;;;24.50;50.10;24.20;97084.00;;;;6042953;23;20182;-83
2023/05/27 08:37:44;;;;;;;5.37;2.40;;;24.60;50.20;24.30;97081.00;;;;6066510;23;20175;-83
2023/05/27 08:40:15;;;;;;;6.20;2.20;;;24.70;49.70;24.40;97079.00;;;;6042933;23;20200;-83
2023/05/27 08:42:43;;;;;;;3.70;1.90;;;24.80;49.60;24.60;97092.00;;;;6043946;23;20203;-82
2023/05/27 08:45:11;;;;;;;4.10;2.20;;;24.90;49.60;24.70;97080.00;;;;6069322;23;20179;-83
2023/05/27 08:47:40;;;;;;;4.87;2.20;;;25.10;49.60;24.80;97076.00;;;;6067457;23;20271;-82
2023/05/27 08:50:09;;;;;;;6.73;2.30;;;25.20;49.10;24.90;97075.00;;;;6068848;23;20183;-83
2023/05/27 08:52:45;;;;;;;3.37;1.77;;;25.30;49.30;25.00;97079.00;;;;6070180;23;20202;-82
2023/05/27 08:55:18;;;;;;;3.80;2.23;;;25.40;48.70;25.10;97072.00;;;;6073303;23;20199;-82
2023/05/27 08:57:51;;;;;;;3.07;2.27;;;25.50;48.40;25.30;97076.00;;;;6069553;23;20160;-82
2023/05/27 09:00:19;;;;;;;2.93;2.07;;;25.60;48.30;25.40;97081.00;;;;6068200;23;20212;-83
2023/05/27 09:02:48;;;;;;;3.17;1.90;;;25.80;48.50;25.50;97070.00;;;;6043215;23;20176;-83
2023/05/27 09:05:18;;;;;;;4.80;2.10;;;25.90;48.40;25.70;97067.00;;;;6042566;23;20658;-82
2023/05/27 09:07:46;;;;;;;3.33;2.13;;;26.00;48.20;25.80;97074.00;;;;6043035;23;20172;-82
2023/05/27 09:10:13;;;;;;;3.10;1.90;;;26.20;47.70;26.00;97069.00;;;;6069381;23;20184;-83
2023/05/27 09:12:44;;;;;;;3.73;2.00;;;26.30;47.70;26.10;97070.00;;;;6070502;23;20232;-86
2023/05/27 09:15:13;;;;;;;3.80;2.20;;;26.40;47.30;26.30;97075.00;;;;6072113;23;20194;-84
2023/05/27 09:17:43;;;;;;;3.97;2.23;;;26.60;47.40;26.40;97074.00;;;;6075554;23;20200;-84
2023/05/27 09:20:12;;;;;;;3.23;2.13;;;26.70;47.20;26.60;97075.00;;;;6049335;23;20223;-84
2023/05/27 09:22:41;;;;;;;3.87;2.30;;;26.90;47.00;26.70;97068.00;;;;6049226;23;20180;-84
2023/05/27 09:25:10;;;;;;;3.90;2.33;;;27.00;46.80;26.90;97071.00;;;;6067151;23;20271;-84
2023/05/27 09:27:43;;;;;;;3.73;2.40;;;27.20;46.70;27.10;97067.00;;;;6078650;23;20200;-83
2023/05/27 09:30:12;;;;;;;2.87;1.90;;;27.40;46.40;27.30;97066.00;;;;6072011;23;20172;-84
2023/05/27 09:32:39;;;;;;;2.88;2.10;;;27.60;46.20;27.50;97065.00;;;;6072693;23;20276;-84
2023/05/27 09:35:08;;;;;;;3.88;2.20;;;27.70;45.80;27.60;97064.00;;;;6075453;23;20227;-84
2023/05/27 09:37:37;;;;;;;5.40;2.53;;;28.00;45.60;27.80;97070.00;;;;6066770;23;20179;-82
2023/05/27 09:40:09;;;;;;;4.85;2.45;;;28.20;45.50;28.00;97059.00;;;;6068620;23;20227;-84
2023/05/27 09:42:42;;;;;;;2.65;2.00;;;28.40;45.10;28.20;97069.00;;;;6092255;23;20187;-84
2023/05/27 09:45:13;;;;;;;4.20;2.30;;;28.60;44.90;28.40;97052.00;;;;6068135;23;20192;-85
2023/05/27 09:47:43;;;;;;;4.32;2.70;;;28.80;44.80;28.60;97058.00;;;;6069580;23;20642;-83
2023/05/27 09:50:14;;;;;;;2.20;1.85;;;29.10;44.50;28.70;97058.00;;;;6067748;23;20191;-85
2023/05/27 09:52:44;;;;;;;3.83;2.08;;;29.30;44.50;28.90;97052.00;;;;6069278;23;20172;-85
2023/05/27 09:55:13;;;;;;;2.30;1.98;;;29.50;44.10;29.10;97058.00;;;;6070280;23;20173;-83
2023/05/27 09:57:42;;;;;;;3.25;1.92;;;29.70;44.00;29.20;97054.00;;;;6069076;23;20172;-85
2023/05/27 10:00:16;;;;;;;5.07;2.05;;;30.00;43.80;29.40;97052.00;;;;6069695;23;20278;-85
2023/05/27 10:02:46;;;;;;;3.75;2.15;;;30.20;43.30;29.50;97055.00;;;;6091962;23;20178;-84
2023/05/27 10:05:16;;;;;;;2.95;1.85;;;30.40;42.70;29.70;97057.00;;;;6069642;23;20161;-83
2023/05/27 10:07:46;;;;;;;3.40;2.50;;;30.60;42.60;29.80;97053.00;;;;6069698;23;20178;-84
2023/05/27 10:10:17;;;;;;;2.30;2.10;;;30.80;42.00;29.90;97054.00;;;;6067662;23;20179;-86
2023/05/27 10:12:47;;;;;;;3.47;2.20;;;30.90;41.90;30.00;97051.00;;;;6067671;23;20203;-85
2023/05/27 10:15:24;;;;;;;5.05;1.90;;;31.10;41.80;30.10;97052.00;;;;6069040;23;20211;-86
2023/05/27 10:17:55;;;;;;;2.80;2.08;;;31.20;40.60;30.30;97055.00;;;;6069020;23;20188;-84
2023/05/27 10:20:28;;;;;;;2.78;2.17;;;31.30;40.90;30.40;97044.00;;;;6069925;23;20560;-85
2023/05/27 10:22:59;;;;;;;2.83;1.80;;;31.30;40.50;30.50;97040.00;;;;6069235;23;20195;-85
2023/05/27 10:25:37;;;;;;;3.28;2.00;;;31.40;40.30;30.50;97044.00;;;;6069392;23;20191;-86
2023/05/27 10:28:04;;;;;;;3.22;2.13;;;31.50;40.20;30.60;97058.00;;;;6071142;23;20188;-85
2023/05/27 10:30:45;;;;;;;3.78;2.13;;;31.50;40.30;30.60;97048.00;;;;6071833;23;20255;-86
2023/05/27 10:33:12;;;;;;;3.17;2.00;;;31.50;39.60;30.70;97052.00;;;;6074095;23;20195;-86
2023/05/27 10:35:45;;;;;;;3.80;2.13;;;31.50;40.20;30.70;97050.00;;;;6085355;23;20176;-85
2023/05/27 10:38:18;;;;;;;2.72;2.10;;;31.60;40.10;30.80;97047.00;;;;6055482;23;20172;-85
2023/05/27 10:40:48;;;;;;;3.58;2.30;;;31.50;39.40;30.80;97049.00;;;;6058812;23;20200;-87
2023/05/27 10:43:20;;;;;;;4.30;2.00;;;31.50;39.70;30.80;97048.00;;;;6076672;23;20253;-85
2023/05/27 10:45:48;;;;;;;3.67;1.80;;;31.50;39.60;30.80;97043.00;;;;6053259;23;20224;-86
2023/05/27 10:48:20;;;;;;;3.15;2.22;;;31.50;39.60;30.80;97034.00;;;;6080101;23;20183;-85
2023/05/27 10:50:54;;;;;;;3.15;1.67;;;31.50;39.50;30.80;97033.00;;;;6043771;23;20179;-85
2023/05/27 10:53:24;;;;;;;2.50;2.30;;;31.40;38.60;30.80;97024.00;;;;6044195;23;20274;-86
2023/05/27 10:55:52;;;;;;;3.80;2.10;;;31.30;38.40;30.60;97027.00;;;;6068962;23;20185;-87
2023/05/27 10:58:20;;;;;;;2.30;1.92;;;31.20;38.40;30.50;97028.00;;;;6043916;23;20574;-85
2023/05/27 11:00:52;;;;;;;4.22;2.25;;;31.10;38.00;30.30;97029.00;;;;6043510;23;20200;-84